createdAt,value
2018-07-28T00:07:58.200Z,93364.53
2018-07-28T00:23:02.166Z,93363.84
2018-07-28T00:38:06.111Z,93365.78
2018-07-28T00:53:10.382Z,93360.59
2018-07-28T01:08:14.267Z,93338.40
2018-07-28T01:23:18.069Z,93325.66
2018-07-28T01:38:21.931Z,93334.57
2018-07-28T01:53:25.740Z,93329.45
2018-07-28T02:08:29.567Z,93323.06
2018-07-28T02:23:33.348Z,93338.50
2018-07-28T02:38:37.197Z,93333.98
2018-07-28T02:53:44.412Z,93343.83
2018-07-28T03:08:48.220Z,93356.36
2018-07-28T03:23:52.016Z,93364.23
2018-07-28T03:38:56.402Z,93367.83
2018-07-28T03:54:00.234Z,93353.86
2018-07-28T04:09:04.597Z,93355.67
2018-07-28T04:24:08.476Z,93344.05
2018-07-28T04:39:13.685Z,93349.00
2018-07-28T04:54:17.477Z,93355.69
2018-07-28T05:09:21.294Z,93346.57
2018-07-28T05:24:25.149Z,93349.39
2018-07-28T05:39:29.055Z,93356.06
2018-07-28T05:54:32.855Z,93351.40
2018-07-28T06:09:36.708Z,93364.29
2018-07-28T06:24:40.529Z,93352.91
2018-07-28T06:39:44.527Z,93350.83
2018-07-28T06:54:48.361Z,93348.49
2018-07-28T07:09:52.276Z,93333.52
2018-07-28T07:24:56.195Z,93327.67
2018-07-28T07:40:00.037Z,93314.78
2018-07-28T07:55:04.131Z,93327.47
2018-07-28T08:10:08.021Z,93320.07
2018-07-28T08:25:12.019Z,93327.55
2018-07-28T08:40:15.988Z,93325.00
2018-07-28T08:55:20.000Z,93312.46
2018-07-28T09:10:23.846Z,93302.40
2018-07-28T09:25:28.076Z,93280.43
2018-07-28T09:40:31.949Z,93270.45
2018-07-28T09:55:36.758Z,93253.06
2018-07-28T10:10:40.928Z,93239.94
2018-07-28T10:25:44.913Z,93232.00
2018-07-28T10:40:49.174Z,93210.21
2018-07-28T10:55:53.077Z,93213.20
2018-07-28T11:10:57.022Z,93207.06
2018-07-28T11:26:00.975Z,93194.37
2018-07-28T11:41:15.789Z,93196.89
2018-07-28T11:56:19.630Z,93178.50
2018-07-28T12:11:23.517Z,93175.62
2018-07-28T12:26:27.544Z,93182.83
2018-07-28T12:41:31.410Z,93172.88
2018-07-28T12:56:35.366Z,93168.88
2018-07-28T13:11:39.385Z,93170.92
2018-07-28T13:26:43.521Z,93183.69
2018-07-28T13:41:47.378Z,93192.75
2018-07-28T13:56:51.351Z,93211.78
2018-07-28T14:11:55.229Z,93219.70
2018-07-28T14:26:59.249Z,93215.64
2018-07-28T14:42:03.109Z,93211.66
2018-07-28T14:57:06.970Z,93215.70
2018-07-28T15:12:11.050Z,93214.23
2018-07-28T15:27:14.924Z,93219.25
2018-07-28T15:42:18.860Z,93215.52
2018-07-28T15:57:22.738Z,93239.33
2018-07-28T16:12:26.591Z,93235.69
2018-07-28T16:27:30.442Z,93257.08
2018-07-28T16:42:34.315Z,93260.34
2018-07-28T16:57:38.247Z,93263.67
2018-07-28T17:12:42.196Z,93273.10
2018-07-28T17:27:46.188Z,93289.03
2018-07-28T17:42:50.116Z,93311.15
2018-07-28T17:57:54.127Z,93316.06
2018-07-28T18:12:58.140Z,93350.59
2018-07-28T18:28:02.268Z,93389.97
2018-07-28T18:43:06.241Z,93382.04
2018-07-28T18:58:10.252Z,93415.37
2018-07-28T19:13:19.678Z,93453.66
2018-07-28T19:28:28.605Z,93456.11
2018-07-28T19:43:32.844Z,93463.96
2018-07-28T19:58:36.847Z,93439.84
2018-07-28T20:13:41.148Z,93434.42
2018-07-28T20:28:45.128Z,93427.02
2018-07-28T20:43:49.045Z,93411.16
2018-07-28T20:58:53.165Z,93406.31
2018-07-28T21:13:57.064Z,93423.87
2018-07-28T21:29:00.969Z,93428.05
2018-07-28T21:44:05.061Z,93425.97
2018-07-28T21:59:09.002Z,93438.13
2018-07-28T22:14:13.061Z,93437.06
2018-07-28T22:29:17.251Z,93432.18
2018-07-28T22:44:21.091Z,93419.59
2018-07-28T22:59:25.092Z,93402.47
2018-07-28T23:14:29.056Z,93393.78
2018-07-28T23:29:33.019Z,93396.46
2018-07-28T23:44:36.879Z,93393.77
2018-07-28T23:59:40.801Z,93391.70
